HESC

St Catherine International Airport

Egypt
METAR HESC 092200Z 00000KT CAVOK 06/03 Q1024 NOSIG
Observed Flight Rules
Dec-9 @ 22:00 UTC (45 minutes ago) Visual Flight Rules
Visibility Clouds
10,000+ meters
  • Clear skies
Temperatures Readings
Current 6°C / 43°F
Dewpoint 3°C / 37°F
Humidity 81%
Altimeter 30.24" Hg
Pressure 1024 hPa
Elevation 1332
METAR HESC 092200Z 00000KT CAVOK 06/03 Q1024 NOSIG
Observed Flight Rules
Dec-9 @ 22:00 UTC
(45 minutes ago)
VFR
Clouds
  • Clear skies
Temperature Dewpoint
6°C / 43°F 3°C / 37°F
Humidity Altimeter Pressure
81% 30.24" Hg 1024 hPa